San Ygnacio, TX (78067)

6:04 AM CST on December 09, 2016 (GMT -0600)
Zapata | | Change Station

Elev 423 ft 26.97 °N, 99.25 °W | Updated 9 minutes ago

Overcast
Overcast
42 °F
Feels Like 37 °F
N
8
Wind Variable Wind from North

Today
High -- | Low -- °F
--% Chance of Precip.
Yesterday
High -- | Low -- °F
Precip. -- in
Pressure 30.58 in
Visibility 10.0 miles
Clouds Overcast 5000 ft
Windchill 37 °F
Dew Point 29 °F
Humidity 60%
Rainfall 0.00 in
Snow Depth Not available.
7:15 AM 5:44 PM
Waxing Gibbous, 73% visible
METAR KAPY 091155Z AUTO 35007KT 10SM OVC050 05/M01 A3058 RMK AO2 T00571015
Pressure 30.58 in
Visibility 10.0 miles
Clouds Overcast 5000 ft
Windchill 37 °F
Dew Point 29 °F
Humidity 60%
Rainfall 0.00 in
Snow Depth Not available.
7:15 AM 5:44 PM
Waxing Gibbous, 73% visible
METAR KAPY 091155Z AUTO 35007KT 10SM OVC050 05/M01 A3058 RMK AO2 T00571015

10-Day Weather Forecast

Almanac

Astronomy

Dec. 09, 2016 Rise Set
Actual Time
Civil Twilight
Nautical Twilight
Astronomical Twilight
Moon
Length of Visible Light
Length of Day
Tomorrow will be .
, % of the Moon is Illuminated

Today's Extremes

State Highs State Lows

Community

WunderPhotos

Upload Photos

1,956,407 photos uploaded!

WunderBlog® & News

Nearby

Air Quality

  Air Quality AQ Index Pollutant
Not available.

Snow Depth

Station Depth Elevation

Earthquake Activity

City Distance Mag. Time & Date
Minimum magnitude displayed is 2.5.

Coastal Water Temperatures

Place Temperature

Stations

Nearby Weather Stations

Station Location Temp. Windchill Dew Point Humidity Wind Precip. Elev Updated Type
                   

Watches & Warnings

There are currently no watches in effect.